Amsterdam, MT

12:28 PM MDT on September 18, 2014 (GMT -0600)
Bridgewater Ranch, West Stagecoach Trail, Amsterdam, Montana | Change Station
CLOSE
Current Station
Personal Weather Station
Location: Manhattan, MT
Elevation: 4450 ft
Nearby Weather Stations

Elev 4450 ft 45.79 °N, 111.36 °W | Updated 5 seconds ago

Overcast
Overcast
63.2 °F
Feels Like 63.2 °F
N
3.0
Wind Variable Wind from ESE
Gusts 5.0 mph

Today
High -- | Low -- °F
--% Chance of Precip.
Yesterday
High -- | Low -- °F
Precip. -- in
7:07 AM 7:30 PM
Waning Crescent, 25% visible
Pressure 29.82 in
Visibility 10.0 miles
Clouds Overcast 10000 ft
Dew Point 63 °F
Humidity 100%
Rainfall 0.06 in
Snow Depth 0 in , 0 in , 0 in
UV 2 out of 12
Pollen 6.20 out of 12
Air Quality Not available.
Flu Activity Not available.
METAR KBZN 181756Z 34008KT 10SM OVC100 17/13 A2990 RMK AO2 RAB28E37 SLP098 P0000 60011 T01720133 10178 20122 56022

More Conditions Fewer Conditions

Pressure 29.82 in
Visibility 10.0 miles
Clouds Overcast 10000 ft
Dew Point 63 °F
Humidity 100%
Rainfall 0.06 in
Snow Depth 0 in , 0 in , 0 in
UV 2 out of 12
Pollen 6.20 out of 12
Air Quality Not available.
Flu Activity Not available.
METAR KBZN 181756Z 34008KT 10SM OVC100 17/13 A2990 RMK AO2 RAB28E37 SLP098 P0000 60011 T01720133 10178 20122 56022

More Conditions Fewer Conditions

10-Day Weather Forecast

Almanac

Astronomy

Sep. 18, 2014 Rise Set
Actual Time 7:07 AM MDT 7:30 PM MDT
Civil Twilight 6:37 AM MDT 8:00 PM MDT
Nautical Twilight 6:02 AM MDT 8:35 PM MDT
Astronomical Twilight 5:26 AM MDT 9:11 PM MDT
Moon 1:50 AM MDT 4:35 PM MDT
Length of Visible Light 13h 22m
Length of Day
12h 23m
Tomorrow will be 3m 12s shorter.
Waning Crescent, 25% of the Moon is Illuminated
Today
Waning Crescent
Sep 24
New
Oct 1
First Quarter
Oct 8
Full
Oct 15
Last Quarter

Today's Extremes

State Highs State Lows

Community

WunderPhotos

Upload Photos

1,754,414 photos uploaded!

Nearby

Snow Depth

Station Depth Elevation
South Fork Shields 0 in 8100 ft
Northeast Entrance 0 in 7350 ft
Copper Bottom 0 in 5200 ft
Kraft Creek 0 in 4750 ft
Wood Creek 1 in 5960 ft

Earthquake Activity

City Distance Mag. Time & Date
No recent earthquake activity has been reported nearby.
Minimum magnitude displayed is 2.5.

Coastal Water Temperatures

Place Temperature
No Stations Reporting

Nearby Weather Stations